createdAt,value
2022-09-13T00:01:48.918Z,7.00
2022-09-13T00:03:53.323Z,7.60
2022-09-13T00:05:56.562Z,7.00
2022-09-13T00:07:59.661Z,6.30
2022-09-13T00:10:02.575Z,7.57
2022-09-13T00:12:06.055Z,7.50
2022-09-13T00:14:08.967Z,6.73
2022-09-13T00:16:13.519Z,6.50
2022-09-13T00:18:17.731Z,7.20
2022-09-13T00:20:22.085Z,8.33
2022-09-13T00:22:25.065Z,7.20
2022-09-13T00:24:28.103Z,8.73
2022-09-13T00:26:31.059Z,7.70
2022-09-13T00:28:33.997Z,6.60
2022-09-13T00:30:37.118Z,7.90
2022-09-13T00:32:40.284Z,7.30
2022-09-13T00:34:43.388Z,8.33
2022-09-13T00:36:47.650Z,7.17
2022-09-13T00:38:50.714Z,9.07
2022-09-13T00:40:53.882Z,9.30
2022-09-13T00:42:56.883Z,6.20
2022-09-13T00:45:01.592Z,6.30
2022-09-13T00:47:06.278Z,7.00
2022-09-13T00:49:15.414Z,6.80
2022-09-13T00:51:18.415Z,7.10
2022-09-13T00:53:27.057Z,7.57
2022-09-13T00:55:33.410Z,5.93
2022-09-13T00:57:36.993Z,10.33
2022-09-13T00:59:44.601Z,7.00
2022-09-13T01:01:51.072Z,7.90
2022-09-13T01:03:56.540Z,6.83
2022-09-13T01:06:03.388Z,7.60
2022-09-13T01:08:22.880Z,7.70
2022-09-13T01:10:27.768Z,7.00
2022-09-13T01:12:36.362Z,9.00
2022-09-13T01:14:39.845Z,8.30
2022-09-13T01:16:47.162Z,8.20
2022-09-13T01:18:50.997Z,7.77
2022-09-13T01:21:12.592Z,7.70
2022-09-13T01:23:40.997Z,8.50
2022-09-13T01:26:02.378Z,7.13
2022-09-13T01:28:18.398Z,7.40
2022-09-13T01:30:24.010Z,7.00
2022-09-13T01:32:33.692Z,8.37
2022-09-13T01:34:44.493Z,9.00
2022-09-13T01:37:08.973Z,6.60
2022-09-13T01:39:15.975Z,7.87
2022-09-13T01:41:33.662Z,7.20
2022-09-13T01:43:43.913Z,7.20
2022-09-13T01:45:54.046Z,7.10
2022-09-13T01:47:59.918Z,7.10
2022-09-13T01:50:14.114Z,5.93
2022-09-13T01:52:25.029Z,7.47
2022-09-13T01:54:36.100Z,7.90
2022-09-13T01:56:42.475Z,7.53
2022-09-13T01:58:49.680Z,6.60
2022-09-13T02:01:00.554Z,7.30
2022-09-13T02:03:07.070Z,8.20
2022-09-13T02:05:16.237Z,7.83
2022-09-13T02:07:21.461Z,7.90
2022-09-13T02:09:27.296Z,6.80
2022-09-13T02:11:30.313Z,6.83
2022-09-13T02:13:37.449Z,8.90
2022-09-13T02:15:45.045Z,7.63
2022-09-13T02:17:53.456Z,8.20
2022-09-13T02:19:58.596Z,8.50
2022-09-13T02:22:02.066Z,8.67
2022-09-13T02:24:07.923Z,7.60
2022-09-13T02:26:13.945Z,9.60
2022-09-13T02:28:21.130Z,6.77
2022-09-13T02:30:24.144Z,7.43
2022-09-13T02:32:31.558Z,7.33
2022-09-13T02:34:39.531Z,8.73
2022-09-13T02:36:44.040Z,8.97
2022-09-13T02:38:52.001Z,8.43
2022-09-13T02:40:58.739Z,7.47
2022-09-13T02:43:06.380Z,6.80
2022-09-13T02:45:10.575Z,7.00
2022-09-13T02:47:22.657Z,6.37
2022-09-13T02:49:29.398Z,7.00
2022-09-13T02:51:39.874Z,7.07
2022-09-13T02:53:45.598Z,7.27
2022-09-13T02:55:56.392Z,7.57
2022-09-13T02:58:03.976Z,7.70
2022-09-13T03:00:08.399Z,7.90
2022-09-13T03:02:14.383Z,7.00
2022-09-13T03:04:17.571Z,6.90
2022-09-13T03:06:24.918Z,8.60
2022-09-13T03:08:29.980Z,6.90
2022-09-13T03:10:40.033Z,8.10
2022-09-13T03:13:07.105Z,10.57
2022-09-13T03:15:15.431Z,8.03
2022-09-13T03:17:31.324Z,9.70
2022-09-13T03:19:54.789Z,7.43
2022-09-13T03:22:10.905Z,6.97
2022-09-13T03:24:19.350Z,7.93
2022-09-13T03:26:30.431Z,8.33
2022-09-13T03:28:39.305Z,8.87
2022-09-13T03:30:46.068Z,7.60
2022-09-13T03:32:52.448Z,7.00
2022-09-13T03:35:02.902Z,8.17
2022-09-13T03:37:09.058Z,6.77
2022-09-13T03:39:15.359Z,7.37
2022-09-13T03:41:21.333Z,7.33
2022-09-13T03:43:29.528Z,7.90
2022-09-13T03:45:34.811Z,8.80
2022-09-13T03:47:38.665Z,9.07
2022-09-13T03:49:41.666Z,8.10
2022-09-13T03:51:46.050Z,9.50
2022-09-13T03:53:53.680Z,6.90
2022-09-13T03:55:56.711Z,6.83
2022-09-13T03:58:01.129Z,7.23
2022-09-13T04:00:05.588Z,7.10
2022-09-13T04:02:15.150Z,6.53
2022-09-13T04:04:18.449Z,7.53
2022-09-13T04:06:21.555Z,9.70
2022-09-13T04:08:24.485Z,8.00
2022-09-13T04:10:27.449Z,8.03
2022-09-13T04:12:31.164Z,7.63
2022-09-13T04:14:35.517Z,8.40
2022-09-13T04:16:38.685Z,8.27
2022-09-13T04:18:41.954Z,7.23
2022-09-13T04:20:44.985Z,6.90
2022-09-13T04:22:52.728Z,9.07
2022-09-13T04:24:58.115Z,6.73
2022-09-13T04:27:04.990Z,7.73
2022-09-13T04:29:07.963Z,7.80
2022-09-13T04:31:12.285Z,8.00
2022-09-13T04:33:16.097Z,8.50
2022-09-13T04:35:19.856Z,8.30
2022-09-13T04:37:23.617Z,8.10
2022-09-13T04:39:26.651Z,11.67
2022-09-13T04:41:30.011Z,6.47
2022-09-13T04:43:33.021Z,7.70
2022-09-13T04:45:36.049Z,8.93
2022-09-13T04:47:40.673Z,8.33
2022-09-13T04:49:43.665Z,6.67
2022-09-13T04:51:46.760Z,8.57
2022-09-13T04:53:53.752Z,8.20
2022-09-13T04:56:01.744Z,6.83
2022-09-13T04:58:04.971Z,7.27
2022-09-13T05:00:10.059Z,8.30
2022-09-13T05:02:13.241Z,7.00
2022-09-13T05:04:17.934Z,9.27
2022-09-13T05:06:21.568Z,7.70
2022-09-13T05:08:24.821Z,9.40
2022-09-13T05:10:28.056Z,7.83
2022-09-13T05:12:31.094Z,8.53
2022-09-13T05:14:35.066Z,7.33
2022-09-13T05:16:38.086Z,9.90
2022-09-13T05:18:45.129Z,8.47
2022-09-13T05:20:50.022Z,10.43
2022-09-13T05:22:53.011Z,11.60
2022-09-13T05:24:56.718Z,9.67
2022-09-13T05:26:59.736Z,8.00
2022-09-13T05:29:03.061Z,10.10
2022-09-13T05:31:07.845Z,8.60
2022-09-13T05:33:10.817Z,9.87
2022-09-13T05:35:13.918Z,12.27
2022-09-13T05:37:18.272Z,8.83
2022-09-13T05:39:36.269Z,10.23
2022-09-13T05:41:45.340Z,8.00
2022-09-13T05:43:48.551Z,7.60
2022-09-13T05:45:51.497Z,6.30
2022-09-13T05:47:54.475Z,7.00
2022-09-13T05:50:23.104Z,7.87
2022-09-13T05:52:21.755Z,8.60
2022-09-13T05:54:24.777Z,7.00
2022-09-13T05:56:29.383Z,8.17
2022-09-13T05:58:32.342Z,6.10
2022-09-13T06:00:35.277Z,7.53
2022-09-13T06:02:38.323Z,8.03
2022-09-13T06:04:41.438Z,10.43
2022-09-13T06:06:44.418Z,7.97
2022-09-13T06:08:49.209Z,7.70
2022-09-13T06:10:56.236Z,6.70
2022-09-13T06:12:59.163Z,7.40
2022-09-13T06:15:02.183Z,8.97
2022-09-13T06:17:05.287Z,8.40
2022-09-13T06:19:08.841Z,8.20
2022-09-13T06:21:17.552Z,7.23
2022-09-13T06:23:20.468Z,9.63
2022-09-13T06:25:24.826Z,7.43
2022-09-13T06:27:27.804Z,8.57
2022-09-13T06:29:31.559Z,10.27
2022-09-13T06:31:34.689Z,9.80
2022-09-13T06:33:39.192Z,8.13
2022-09-13T06:35:42.292Z,8.63
2022-09-13T06:37:45.268Z,10.87
2022-09-13T06:39:48.393Z,10.17
2022-09-13T06:41:52.939Z,8.00
2022-09-13T06:44:02.827Z,9.07
2022-09-13T06:46:07.934Z,10.50
2022-09-13T06:48:10.958Z,10.90
2022-09-13T06:50:14.609Z,8.60
2022-09-13T06:52:17.801Z,8.20
2022-09-13T06:54:20.890Z,10.10
2022-09-13T06:56:25.031Z,8.67
2022-09-13T06:58:31.579Z,11.47
2022-09-13T07:00:34.568Z,7.70
2022-09-13T07:02:37.603Z,9.83
2022-09-13T07:04:40.621Z,9.40
2022-09-13T07:06:44.975Z,7.70
2022-09-13T07:08:48.987Z,8.00
2022-09-13T07:10:52.064Z,7.20
2022-09-13T07:12:55.018Z,9.17
2022-09-13T07:14:59.295Z,7.67
2022-09-13T07:17:02.248Z,8.47
2022-09-13T07:19:07.049Z,9.87
2022-09-13T07:21:11.788Z,7.67
2022-09-13T07:23:15.489Z,9.70
2022-09-13T07:25:18.516Z,9.43
2022-09-13T07:27:21.489Z,8.77
2022-09-13T07:29:24.890Z,7.60
2022-09-13T07:31:31.228Z,6.87
2022-09-13T07:33:34.239Z,7.43
2022-09-13T07:35:37.217Z,11.00
2022-09-13T07:37:42.282Z,6.97
2022-09-13T07:39:45.320Z,8.20
2022-09-13T07:41:48.430Z,5.77
2022-09-13T07:43:51.872Z,5.97
2022-09-13T07:45:59.016Z,5.90
2022-09-13T07:48:03.821Z,6.10
2022-09-13T07:50:07.723Z,6.27
2022-09-13T07:52:11.032Z,5.33
2022-09-13T07:54:15.915Z,6.43
2022-09-13T07:56:20.240Z,5.47
2022-09-13T07:58:23.392Z,4.63
2022-09-13T08:00:26.318Z,4.63
2022-09-13T08:02:29.726Z,10.07
2022-09-13T08:04:36.384Z,4.67
2022-09-13T08:06:40.856Z,5.60
2022-09-13T08:08:43.925Z,5.60
2022-09-13T08:10:49.479Z,5.13
2022-09-13T08:12:52.617Z,8.13
2022-09-13T08:14:55.640Z,6.07
2022-09-13T08:16:58.614Z,5.40
2022-09-13T08:19:03.637Z,5.77
2022-09-13T08:21:08.184Z,5.70
2022-09-13T08:23:12.474Z,5.70
2022-09-13T08:25:15.495Z,6.30
2022-09-13T08:27:18.505Z,4.60
2022-09-13T08:29:21.496Z,5.93
2022-09-13T08:31:25.208Z,4.37
2022-09-13T08:33:28.229Z,4.00
2022-09-13T08:35:31.396Z,5.50
2022-09-13T08:37:36.358Z,6.30
2022-09-13T08:39:39.829Z,4.70
2022-09-13T08:42:02.542Z,4.33
2022-09-13T08:44:09.757Z,8.00
2022-09-13T08:46:19.616Z,5.37
2022-09-13T08:48:24.784Z,3.80
2022-09-13T08:50:29.231Z,5.50
2022-09-13T08:52:37.112Z,4.60
2022-09-13T08:54:40.134Z,3.93
2022-09-13T08:56:47.512Z,6.37
2022-09-13T08:59:06.678Z,4.10
2022-09-13T09:01:14.944Z,4.53
2022-09-13T09:03:26.324Z,3.67
2022-09-13T09:05:30.527Z,4.13
2022-09-13T09:07:38.254Z,4.87
2022-09-13T09:09:45.097Z,5.00
2022-09-13T09:11:52.528Z,3.63
2022-09-13T09:13:59.499Z,3.80
2022-09-13T09:16:07.458Z,4.40
2022-09-13T09:18:14.329Z,6.43
2022-09-13T09:20:26.841Z,6.03
2022-09-13T09:22:34.410Z,5.27
2022-09-13T09:24:40.088Z,3.47
2022-09-13T09:26:43.043Z,4.97
2022-09-13T09:28:48.834Z,4.13
2022-09-13T09:30:59.875Z,3.73
2022-09-13T09:33:14.631Z,3.97
2022-09-13T09:35:27.354Z,4.60
2022-09-13T09:37:31.399Z,3.77
2022-09-13T09:39:38.926Z,3.93
2022-09-13T09:41:44.117Z,5.10
2022-09-13T09:43:52.490Z,3.40
2022-09-13T09:45:56.417Z,3.77
2022-09-13T09:48:03.538Z,4.90
2022-09-13T09:50:12.132Z,3.30
2022-09-13T09:52:18.058Z,3.70
2022-09-13T09:54:21.298Z,3.60
2022-09-13T09:56:25.712Z,6.17
2022-09-13T09:58:40.784Z,3.00
2022-09-13T10:00:52.756Z,3.30
2022-09-13T10:02:59.501Z,4.37
2022-09-13T10:05:04.922Z,3.87
2022-09-13T10:07:18.617Z,4.00
2022-09-13T10:09:22.927Z,3.30
2022-09-13T10:11:26.835Z,5.37
2022-09-13T10:13:31.859Z,4.13
2022-09-13T10:15:36.491Z,4.73
2022-09-13T10:17:39.572Z,4.13
2022-09-13T10:19:43.032Z,3.00
2022-09-13T10:22:00.900Z,2.40
2022-09-13T10:24:19.163Z,4.53
2022-09-13T10:26:23.700Z,3.37
2022-09-13T10:28:27.365Z,5.30
2022-09-13T10:30:34.469Z,3.93
2022-09-13T10:32:38.838Z,3.07
2022-09-13T10:34:44.178Z,2.47
2022-09-13T10:36:53.549Z,2.43
2022-09-13T10:38:59.705Z,2.20
2022-09-13T10:41:05.147Z,3.87
2022-09-13T10:43:15.147Z,2.63
2022-09-13T10:45:23.496Z,3.60
2022-09-13T10:47:31.164Z,2.30
2022-09-13T10:49:45.522Z,4.27
2022-09-13T10:51:48.643Z,2.50
2022-09-13T10:53:51.649Z,2.80
2022-09-13T10:55:55.843Z,4.10
2022-09-13T10:58:15.373Z,2.60
2022-09-13T11:00:20.074Z,2.67
2022-09-13T11:02:36.502Z,2.43
2022-09-13T11:05:18.786Z,2.60
2022-09-13T11:07:35.078Z,3.93
2022-09-13T11:09:42.683Z,4.27
2022-09-13T11:11:52.516Z,3.90
2022-09-13T11:14:07.271Z,2.93
2022-09-13T11:16:22.462Z,2.70
2022-09-13T11:18:55.299Z,2.40
2022-09-13T11:21:07.704Z,2.80
2022-09-13T11:23:38.130Z,4.60
2022-09-13T11:25:50.222Z,4.30
2022-09-13T11:27:58.307Z,2.60
2022-09-13T11:30:14.113Z,2.87
2022-09-13T11:32:28.080Z,2.40
2022-09-13T11:34:38.770Z,2.87
2022-09-13T11:37:11.017Z,2.53
2022-09-13T11:39:22.070Z,2.87
2022-09-13T11:41:31.567Z,4.53
2022-09-13T11:43:45.205Z,2.23
2022-09-13T11:45:55.868Z,3.13
2022-09-13T11:48:15.023Z,2.67
2022-09-13T11:50:27.223Z,2.30
2022-09-13T11:52:42.269Z,2.87
2022-09-13T11:54:56.162Z,2.20
2022-09-13T11:57:02.866Z,2.80
2022-09-13T11:59:15.863Z,2.53
2022-09-13T12:01:22.016Z,2.40
2022-09-13T12:03:27.616Z,3.60
2022-09-13T12:05:33.520Z,3.20
2022-09-13T12:07:41.495Z,3.00
2022-09-13T12:09:49.271Z,2.77
2022-09-13T12:11:55.151Z,3.33
2022-09-13T12:14:01.036Z,3.13
2022-09-13T12:16:06.953Z,2.57
2022-09-13T12:18:14.714Z,2.70
2022-09-13T12:20:21.404Z,2.70
2022-09-13T12:22:30.246Z,3.10
2022-09-13T12:24:39.474Z,4.60
2022-09-13T12:26:46.459Z,2.80
2022-09-13T12:28:53.599Z,5.73
2022-09-13T12:30:59.365Z,3.43
2022-09-13T12:33:02.461Z,3.47
2022-09-13T12:35:09.272Z,3.47
2022-09-13T12:37:23.394Z,3.23
2022-09-13T12:40:06.268Z,6.13
2022-09-13T12:42:36.192Z,5.40
2022-09-13T12:44:46.167Z,5.67
2022-09-13T12:47:05.722Z,2.53
2022-09-13T12:49:28.278Z,6.97
2022-09-13T12:51:39.956Z,2.43
2022-09-13T12:54:07.758Z,3.53
2022-09-13T12:56:23.187Z,7.03
2022-09-13T12:58:56.353Z,7.33
2022-09-13T13:01:09.810Z,3.17
2022-09-13T13:03:16.473Z,3.77
2022-09-13T13:05:25.954Z,2.60
2022-09-13T13:07:30.026Z,3.80
2022-09-13T13:09:41.000Z,3.70
2022-09-13T13:11:46.037Z,2.73
2022-09-13T13:13:57.973Z,2.70
2022-09-13T13:16:09.082Z,2.60
2022-09-13T13:18:26.073Z,2.53
2022-09-13T13:21:06.952Z,3.47
2022-09-13T13:23:28.571Z,3.47
2022-09-13T13:25:37.916Z,5.27
2022-09-13T13:27:48.406Z,4.13
2022-09-13T13:30:54.061Z,2.70
2022-09-13T13:33:14.456Z,3.00
2022-09-13T13:35:32.291Z,2.83
2022-09-13T13:37:38.219Z,3.23
2022-09-13T13:39:42.917Z,2.90
2022-09-13T13:41:52.789Z,3.50
2022-09-13T13:43:55.958Z,2.77
2022-09-13T13:46:31.042Z,2.83
2022-09-13T13:48:39.918Z,2.30
2022-09-13T13:51:15.500Z,2.47
2022-09-13T13:53:23.116Z,4.10
2022-09-13T13:55:41.756Z,3.33
2022-09-13T13:57:51.612Z,3.40
2022-09-13T13:59:56.357Z,2.23
2022-09-13T14:02:01.747Z,2.67
2022-09-13T14:04:44.546Z,2.10
2022-09-13T14:06:50.321Z,2.83
2022-09-13T14:09:03.409Z,3.47
2022-09-13T14:11:15.794Z,1.73
2022-09-13T14:13:43.564Z,2.43
2022-09-13T14:15:52.874Z,2.73
2022-09-13T14:18:28.464Z,6.43
2022-09-13T14:20:32.944Z,4.23
2022-09-13T14:22:35.996Z,3.50
2022-09-13T14:24:42.619Z,2.67
2022-09-13T14:26:46.137Z,4.17
2022-09-13T14:28:49.291Z,4.10
2022-09-13T14:30:55.117Z,2.47
2022-09-13T14:32:59.176Z,2.53
2022-09-13T14:35:03.824Z,2.10
2022-09-13T14:37:18.029Z,1.80
2022-09-13T14:39:21.260Z,2.30
2022-09-13T14:41:32.418Z,3.73
2022-09-13T14:43:35.365Z,2.00
2022-09-13T14:45:39.552Z,3.40
2022-09-13T14:47:48.780Z,5.37
2022-09-13T14:49:55.699Z,5.47
2022-09-13T14:52:02.380Z,2.90
2022-09-13T14:54:10.755Z,3.63
2022-09-13T14:56:16.879Z,2.03
2022-09-13T14:58:24.029Z,3.83
2022-09-13T15:00:27.394Z,2.13
2022-09-13T15:02:33.171Z,2.87
2022-09-13T15:04:38.870Z,1.90
2022-09-13T15:06:45.731Z,3.70
2022-09-13T15:08:49.222Z,4.13
2022-09-13T15:10:53.797Z,1.97
2022-09-13T15:13:08.312Z,2.27
2022-09-13T15:15:27.589Z,2.93
2022-09-13T15:17:30.765Z,2.00
2022-09-13T15:19:39.327Z,2.50
2022-09-13T15:21:42.625Z,2.47
2022-09-13T15:23:51.365Z,2.20
2022-09-13T15:25:57.342Z,2.50
2022-09-13T15:28:00.435Z,2.57
2022-09-13T15:30:06.611Z,1.97
2022-09-13T15:32:22.292Z,2.70
2022-09-13T15:34:27.483Z,1.80
2022-09-13T15:36:30.521Z,3.63
2022-09-13T15:38:34.325Z,1.80
2022-09-13T15:40:43.877Z,2.43
2022-09-13T15:42:49.726Z,4.10
2022-09-13T15:44:52.816Z,2.40
2022-09-13T15:46:57.594Z,1.90
2022-09-13T15:49:03.616Z,1.97
2022-09-13T15:51:11.030Z,1.93
2022-09-13T15:53:14.109Z,2.37
2022-09-13T15:55:17.589Z,1.83
2022-09-13T15:57:23.460Z,3.00
2022-09-13T15:59:27.976Z,5.53
2022-09-13T16:01:31.109Z,2.47
2022-09-13T16:03:34.316Z,3.27
2022-09-13T16:05:37.362Z,1.70
2022-09-13T16:07:41.001Z,7.17
2022-09-13T16:09:44.583Z,6.27
2022-09-13T16:11:48.276Z,6.43
2022-09-13T16:13:51.374Z,6.37
2022-09-13T16:15:58.071Z,4.30
2022-09-13T16:18:01.253Z,4.37
2022-09-13T16:20:06.461Z,3.10
2022-09-13T16:22:12.632Z,3.47
2022-09-13T16:24:16.294Z,3.37
2022-09-13T16:26:19.432Z,5.20
2022-09-13T16:28:22.473Z,4.33
2022-09-13T16:30:27.743Z,6.87
2022-09-13T16:32:32.734Z,4.40
2022-09-13T16:34:35.751Z,6.10
2022-09-13T16:36:38.864Z,5.87
2022-09-13T16:38:42.008Z,8.50
2022-09-13T16:40:45.139Z,9.07
2022-09-13T16:42:48.102Z,4.30
2022-09-13T16:44:51.141Z,3.00
2022-09-13T16:46:54.227Z,5.53
2022-09-13T16:48:59.044Z,8.03
2022-09-13T16:51:03.400Z,5.13
2022-09-13T16:53:06.393Z,4.37
2022-09-13T16:55:09.896Z,4.73
2022-09-13T16:57:13.988Z,4.27
2022-09-13T16:59:17.474Z,5.40
2022-09-13T17:01:21.968Z,5.83
2022-09-13T17:03:25.017Z,6.73
2022-09-13T17:05:29.579Z,4.40
2022-09-13T17:07:32.665Z,3.93
2022-09-13T17:09:36.200Z,2.70
2022-09-13T17:11:41.095Z,3.60
2022-09-13T17:13:44.291Z,2.63
2022-09-13T17:15:47.360Z,4.33
2022-09-13T17:17:50.527Z,3.47
2022-09-13T17:19:53.590Z,4.50
2022-09-13T17:21:58.479Z,5.83
2022-09-13T17:24:02.018Z,9.87
2022-09-13T17:26:05.878Z,3.70
2022-09-13T17:28:08.926Z,3.70
2022-09-13T17:30:12.926Z,4.17
2022-09-13T17:32:15.973Z,2.83
2022-09-13T17:34:19.309Z,2.80
2022-09-13T17:36:22.715Z,3.67
2022-09-13T17:38:27.316Z,6.50
2022-09-13T17:40:31.798Z,5.53
2022-09-13T17:42:34.867Z,4.73
2022-09-13T17:44:37.960Z,5.17
2022-09-13T17:46:41.118Z,7.93
2022-09-13T17:48:45.105Z,8.73
2022-09-13T17:50:48.270Z,15.33
2022-09-13T17:52:52.140Z,12.20
2022-09-13T17:54:56.485Z,8.50
2022-09-13T17:56:59.566Z,7.20
2022-09-13T17:59:09.986Z,4.47
2022-09-13T18:01:14.912Z,7.97
2022-09-13T18:03:18.746Z,4.43
2022-09-13T18:05:21.943Z,4.20
2022-09-13T18:07:25.277Z,4.47
2022-09-13T18:09:28.395Z,7.87
2022-09-13T18:11:32.989Z,4.43
2022-09-13T18:13:36.160Z,3.50
2022-09-13T18:15:39.205Z,5.90
2022-09-13T18:17:42.311Z,6.90
2022-09-13T18:19:47.003Z,8.03
2022-09-13T18:21:50.587Z,4.10
2022-09-13T18:23:55.507Z,4.77
2022-09-13T18:26:02.592Z,5.30
2022-09-13T19:30:00.299Z,4.27
2022-09-13T19:32:03.992Z,6.77
2022-09-13T19:34:07.572Z,5.17
2022-09-13T19:36:17.725Z,4.13
2022-09-13T19:38:20.900Z,4.10
2022-09-13T19:40:24.188Z,8.63
2022-09-13T19:42:27.302Z,9.03
2022-09-13T19:44:30.832Z,5.00
2022-09-13T19:46:37.948Z,5.50
2022-09-13T19:48:42.270Z,4.83
2022-09-13T19:50:45.405Z,6.50
2022-09-13T19:52:49.521Z,4.17
2022-09-13T19:54:53.186Z,9.00
2022-09-13T19:56:56.255Z,5.87
2022-09-13T19:58:59.918Z,11.70
2022-09-13T20:01:04.181Z,5.33
2022-09-13T20:03:08.880Z,7.30
2022-09-13T20:05:11.974Z,7.17
2022-09-13T20:07:15.041Z,8.70
2022-09-13T20:09:20.148Z,5.30
2022-09-13T20:11:25.967Z,12.90
2022-09-13T20:13:29.224Z,5.60
2022-09-13T20:15:33.504Z,4.87
2022-09-13T20:17:37.973Z,5.10
2022-09-13T20:19:47.614Z,5.50
2022-09-13T20:21:52.966Z,7.00
2022-09-13T20:23:57.589Z,8.13
2022-09-13T20:26:00.812Z,4.00
2022-09-13T20:28:04.213Z,6.07
2022-09-13T20:30:08.728Z,5.70
2022-09-13T20:32:12.088Z,8.13
2022-09-13T20:34:15.991Z,4.90
2022-09-13T20:36:20.446Z,6.17
2022-09-13T20:38:23.727Z,3.87
2022-09-13T20:40:26.816Z,4.50
2022-09-13T20:42:29.879Z,6.00
2022-09-13T20:44:32.916Z,5.63
2022-09-13T20:46:36.012Z,4.60
2022-09-13T20:48:39.740Z,4.13
2022-09-13T20:50:42.945Z,4.00
2022-09-13T20:52:47.464Z,6.40
2022-09-13T20:54:50.457Z,6.17
2022-09-13T20:56:53.463Z,6.50
2022-09-13T20:58:59.988Z,5.10
2022-09-13T21:01:04.206Z,7.17
2022-09-13T21:03:08.133Z,5.23
2022-09-13T21:05:11.266Z,9.43
2022-09-13T21:07:31.750Z,6.97
2022-09-13T21:09:36.070Z,5.20
2022-09-13T21:11:39.042Z,5.23
2022-09-13T21:13:44.768Z,9.30
2022-09-13T21:15:50.309Z,7.13
2022-09-13T21:17:53.744Z,4.87
2022-09-13T21:19:56.740Z,4.80
2022-09-13T21:22:01.441Z,6.93
2022-09-13T21:24:05.833Z,6.50
2022-09-13T21:26:11.820Z,4.73
2022-09-13T21:28:14.929Z,5.50
2022-09-13T21:30:18.162Z,4.60
2022-09-13T21:32:21.183Z,5.93
2022-09-13T21:34:26.430Z,4.50
2022-09-13T21:36:30.503Z,4.57
2022-09-13T21:38:35.157Z,8.17
2022-09-13T21:40:38.243Z,4.63
2022-09-13T21:42:42.875Z,6.63
2022-09-13T21:44:46.258Z,4.70
2022-09-13T21:46:51.404Z,4.70
2022-09-13T21:48:56.653Z,4.23
2022-09-13T21:51:06.951Z,6.20
2022-09-13T21:53:09.964Z,4.03
2022-09-13T21:55:13.004Z,3.50
2022-09-13T21:57:15.990Z,4.57
2022-09-13T21:59:22.799Z,4.57
2022-09-13T22:01:27.106Z,3.67
2022-09-13T22:03:30.460Z,6.60
2022-09-13T22:05:34.085Z,4.77
2022-09-13T22:07:37.390Z,9.07
2022-09-13T22:09:40.417Z,5.27
2022-09-13T22:11:44.651Z,3.90
2022-09-13T22:13:48.079Z,3.50
2022-09-13T22:15:52.481Z,5.00
2022-09-13T22:17:55.551Z,3.67
2022-09-13T22:19:58.595Z,5.53
2022-09-13T22:22:01.555Z,5.47
2022-09-13T22:24:05.879Z,4.27
2022-09-13T22:26:10.319Z,4.67
2022-09-13T22:28:13.334Z,5.20
2022-09-13T22:30:16.336Z,4.60
2022-09-13T22:32:23.298Z,5.53
2022-09-13T22:34:30.795Z,4.60
2022-09-13T22:36:34.059Z,5.13
2022-09-13T22:38:37.845Z,3.50
2022-09-13T22:40:41.107Z,3.10
2022-09-13T22:42:44.093Z,5.43
2022-09-13T22:44:47.115Z,6.83
2022-09-13T22:46:50.183Z,5.30
2022-09-13T22:48:55.710Z,5.70
2022-09-13T22:50:59.191Z,4.80
2022-09-13T22:53:02.222Z,5.00
2022-09-13T22:55:06.160Z,4.03
2022-09-13T22:57:09.143Z,3.43
2022-09-13T22:59:14.854Z,4.60
2022-09-13T23:01:19.945Z,4.17
2022-09-13T23:03:22.960Z,4.20
2022-09-13T23:05:27.442Z,3.53
2022-09-13T23:07:30.411Z,3.33
2022-09-13T23:09:33.414Z,3.10
2022-09-13T23:11:38.031Z,3.37
2022-09-13T23:13:41.077Z,3.53
2022-09-13T23:15:44.061Z,3.27
2022-09-13T23:17:47.163Z,3.60
2022-09-13T23:19:50.214Z,3.37
2022-09-13T23:21:54.683Z,5.90
2022-09-13T23:23:59.161Z,3.93
2022-09-13T23:26:07.113Z,4.53
2022-09-13T23:28:10.140Z,4.33
2022-09-13T23:30:13.648Z,4.10
2022-09-13T23:32:16.946Z,3.40
2022-09-13T23:34:20.706Z,6.03
2022-09-13T23:36:25.537Z,3.90
2022-09-13T23:38:29.877Z,6.73
2022-09-13T23:40:32.969Z,4.10
2022-09-13T23:42:35.979Z,3.70
2022-09-13T23:44:38.986Z,3.87
2022-09-13T23:46:42.126Z,4.10
2022-09-13T23:48:45.517Z,5.07
2022-09-13T23:50:48.588Z,5.93
2022-09-13T23:52:51.775Z,4.47
2022-09-13T23:54:57.086Z,7.27
2022-09-13T23:57:00.050Z,4.80
2022-09-13T23:59:04.658Z,7.10
